Time;durP1;ratioP1;P1;durP2;ratioP2;P2;SDS_P1;SDS_P2;PMS_P1;PMS_P2;Temp;Humidity;BMP_temperature;BMP_pressure;BME280_temperature;BME280_humidity;BME280_pressure;Samples;Min_cycle;Max_cycle;Signal;HPM_P1;HPM_P2
2023/07/09 00:01:51;;;;;;;;;12.80;11.00;;;;;;;;5050235;28;8785;-75
2023/07/09 00:04:20;;;;;;;;;12.00;10.80;;;;;;;;5050339;28;8845;-76
2023/07/09 00:06:47;;;;;;;;;11.40;11.40;;;;;;;;5050446;28;8943;-75
2023/07/09 00:09:16;;;;;;;;;12.40;12.40;;;;;;;;5051452;28;8857;-76
2023/07/09 00:11:45;;;;;;;;;15.00;12.20;;;;;;;;5052249;28;8849;-76
2023/07/09 00:14:13;;;;;;;;;15.40;12.40;;;;;;;;5051910;28;9017;-76
2023/07/09 00:16:41;;;;;;;;;12.20;12.20;;;;;;;;5051280;28;8992;-80
2023/07/09 00:19:15;;;;;;;;;12.00;12.00;;;;;;;;5050456;28;8863;-78
2023/07/09 00:21:46;;;;;;;;;12.40;11.20;;;;;;;;5050200;28;9636;-77
2023/07/09 00:24:13;;;;;;;;;8.60;8.60;;;;;;;;5049944;28;8881;-80
2023/07/09 00:26:41;;;;;;;;;8.80;8.80;;;;;;;;5048853;28;8846;-80
2023/07/09 00:29:10;;;;;;;;;10.20;10.20;;;;;;;;5049882;28;8976;-81
2023/07/09 00:31:40;;;;;;;;;10.40;10.40;;;;;;;;5049620;28;8781;-77
2023/07/09 00:34:07;;;;;;;;;11.60;9.00;;;;;;;;5049799;28;8861;-80
2023/07/09 00:36:35;;;;;;;;;10.80;10.80;;;;;;;;5050259;28;8845;-81
2023/07/09 00:39:04;;;;;;;;;8.20;8.20;;;;;;;;5049971;28;8849;-77
2023/07/09 00:41:35;;;;;;;;;9.40;9.40;;;;;;;;5048937;28;8887;-77
2023/07/09 00:44:29;;;;;;;;;8.20;8.20;;;;;;;;5049655;28;8880;-78
2023/07/09 00:47:24;;;;;;;;;8.60;8.60;;;;;;;;5049439;28;8870;-76
2023/07/09 00:50:01;;;;;;;;;9.40;9.40;;;;;;;;5049290;28;8854;-76
2023/07/09 00:52:35;;;;;;;;;10.80;10.80;;;;;;;;5049510;28;9250;-78
2023/07/09 00:55:07;;;;;;;;;10.40;10.40;;;;;;;;5049489;28;8861;-78
2023/07/09 00:57:38;;;;;;;;;6.60;6.20;;;;;;;;5049784;28;8853;-77
2023/07/09 01:00:09;;;;;;;;;10.60;10.60;;;;;;;;5049246;28;8971;-77
2023/07/09 01:02:37;;;;;;;;;10.40;9.80;;;;;;;;5049618;28;8873;-78
2023/07/09 01:05:06;;;;;;;;;9.60;9.60;;;;;;;;5049183;28;8868;-78
2023/07/09 01:07:34;;;;;;;;;5.60;5.60;;;;;;;;5049386;28;9668;-77
2023/07/09 01:10:03;;;;;;;;;8.60;8.20;;;;;;;;5049555;28;8872;-79
2023/07/09 01:12:31;;;;;;;;;8.60;7.80;;;;;;;;5049571;28;8965;-76
2023/07/09 01:15:00;;;;;;;;;7.40;7.40;;;;;;;;5049373;28;8986;-77
2023/07/09 01:17:29;;;;;;;;;7.60;7.60;;;;;;;;5049046;28;8853;-77
2023/07/09 01:20:00;;;;;;;;;6.60;6.60;;;;;;;;5049300;28;8853;-76
2023/07/09 01:22:29;;;;;;;;;5.80;5.80;;;;;;;;5049338;28;8984;-78
2023/07/09 01:25:01;;;;;;;;;7.60;7.60;;;;;;;;5049201;28;8906;-78
2023/07/09 01:27:30;;;;;;;;;8.00;8.00;;;;;;;;5049410;28;8968;-79
2023/07/09 01:29:59;;;;;;;;;6.60;6.60;;;;;;;;5049573;28;8845;-78
2023/07/09 01:32:27;;;;;;;;;7.00;7.00;;;;;;;;5048659;28;8827;-78
2023/07/09 01:34:57;;;;;;;;;6.40;6.40;;;;;;;;5049416;28;8849;-76
2023/07/09 01:37:28;;;;;;;;;8.60;8.60;;;;;;;;5049245;28;8857;-76
2023/07/09 01:39:56;;;;;;;;;6.40;6.40;;;;;;;;5053084;28;8849;-76
2023/07/09 01:42:25;;;;;;;;;6.80;6.80;;;;;;;;5053809;28;8883;-77
2023/07/09 01:44:54;;;;;;;;;8.25;8.25;;;;;;;;5055292;28;8865;-75
2023/07/09 01:47:22;;;;;;;;;6.75;6.75;;;;;;;;5055348;28;8877;-76
2023/07/09 01:49:49;;;;;;;;;6.00;6.00;;;;;;;;5054986;28;8865;-76
2023/07/09 01:52:18;;;;;;;;;7.00;7.00;;;;;;;;5054079;28;8875;-78
2023/07/09 01:54:49;;;;;;;;;7.60;6.60;;;;;;;;5053716;28;9655;-80
2023/07/09 01:57:22;;;;;;;;;8.80;7.20;;;;;;;;5053309;28;8889;-77
2023/07/09 01:59:49;;;;;;;;;6.40;6.20;;;;;;;;5052783;28;9011;-80
2023/07/09 02:02:19;;;;;;;;;6.80;6.80;;;;;;;;5052393;28;8774;-78
2023/07/09 02:04:47;;;;;;;;;9.60;8.60;;;;;;;;5052588;28;8880;-81
2023/07/09 02:07:15;;;;;;;;;9.00;9.00;;;;;;;;5052879;28;9015;-80
2023/07/09 02:09:42;;;;;;;;;7.80;7.80;;;;;;;;5052704;28;8857;-78
2023/07/09 02:12:12;;;;;;;;;5.80;5.80;;;;;;;;5052966;28;8860;-79
2023/07/09 02:14:44;;;;;;;;;6.60;6.60;;;;;;;;5052803;28;8895;-78
2023/07/09 02:17:12;;;;;;;;;8.25;8.25;;;;;;;;5052545;28;8845;-80
2023/07/09 02:19:39;;;;;;;;;7.80;7.80;;;;;;;;5053149;28;8995;-80
2023/07/09 02:22:07;;;;;;;;;7.00;7.00;;;;;;;;5052525;28;8845;-79
2023/07/09 02:24:35;;;;;;;;;8.80;8.80;;;;;;;;5053498;28;8888;-82
2023/07/09 02:27:05;;;;;;;;;5.75;5.75;;;;;;;;5052794;28;8881;-81
2023/07/09 02:29:34;;;;;;;;;6.80;6.80;;;;;;;;5053633;28;8857;-78
2023/07/09 02:32:02;;;;;;;;;5.00;5.00;;;;;;;;5053719;28;8802;-78
2023/07/09 02:34:31;;;;;;;;;6.00;6.00;;;;;;;;5053096;28;9737;-79
2023/07/09 02:36:59;;;;;;;;;7.75;7.75;;;;;;;;5052490;28;8971;-78
2023/07/09 02:39:27;;;;;;;;;7.00;7.00;;;;;;;;5052156;28;8876;-78
2023/07/09 02:41:55;;;;;;;;;7.60;7.60;;;;;;;;5051985;28;8887;-79
2023/07/09 02:44:23;;;;;;;;;6.20;6.20;;;;;;;;5052431;28;8975;-78
2023/07/09 02:46:52;;;;;;;;;6.50;6.50;;;;;;;;5051847;28;8842;-77
2023/07/09 02:49:19;;;;;;;;;9.00;8.00;;;;;;;;5051691;28;8975;-76
2023/07/09 02:51:46;;;;;;;;;7.80;6.80;;;;;;;;5051313;28;8972;-77
2023/07/09 02:54:14;;;;;;;;;7.60;6.60;;;;;;;;5051607;28;8938;-77
2023/07/09 02:56:41;;;;;;;;;7.00;7.00;;;;;;;;5051948;28;8968;-77
2023/07/09 02:59:08;;;;;;;;;7.20;6.00;;;;;;;;5051834;28;8983;-75
2023/07/09 03:01:35;;;;;;;;;7.40;7.40;;;;;;;;5051041;28;9464;-76
2023/07/09 03:04:04;;;;;;;;;8.75;8.75;;;;;;;;5051292;28;8867;-77
2023/07/09 03:06:33;;;;;;;;;8.40;7.40;;;;;;;;5051567;28;8853;-77
2023/07/09 03:09:01;;;;;;;;;8.50;8.50;;;;;;;;5051856;28;8860;-78
2023/07/09 03:11:30;;;;;;;;;7.50;7.50;;;;;;;;5052099;28;8964;-78
2023/07/09 03:13:58;;;;;;;;;8.25;7.00;;;;;;;;5051718;28;8872;-78
2023/07/09 03:16:26;;;;;;;;;8.75;8.75;;;;;;;;5051442;28;8939;-78
2023/07/09 03:18:54;;;;;;;;;7.25;7.25;;;;;;;;5051910;28;8857;-76
2023/07/09 03:21:22;;;;;;;;;7.50;6.25;;;;;;;;5052830;28;8919;-76
2023/07/09 03:23:50;;;;;;;;;8.25;7.00;;;;;;;;5052523;28;8845;-78
2023/07/09 03:26:17;;;;;;;;;7.50;7.50;;;;;;;;5052620;28;8887;-77
2023/07/09 03:28:44;;;;;;;;;7.50;7.50;;;;;;;;5051753;28;9654;-76
2023/07/09 03:31:13;;;;;;;;;9.50;7.75;;;;;;;;5050966;28;8912;-78
2023/07/09 03:33:43;;;;;;;;;8.00;8.00;;;;;;;;5051042;28;9707;-79
2023/07/09 03:36:11;;;;;;;;;6.50;6.50;;;;;;;;5050977;28;9628;-77
2023/07/09 03:38:39;;;;;;;;;7.50;7.50;;;;;;;;5051096;28;8979;-80
2023/07/09 03:41:07;;;;;;;;;7.00;7.00;;;;;;;;5050654;28;8869;-78
2023/07/09 03:43:34;;;;;;;;;7.00;7.00;;;;;;;;5051293;28;8989;-78
2023/07/09 03:46:02;;;;;;;;;5.75;5.75;;;;;;;;5051829;28;8888;-78
2023/07/09 03:48:29;;;;;;;;;7.25;7.25;;;;;;;;5048665;28;8946;-76
2023/07/09 03:50:56;;;;;;;;;7.25;7.25;;;;;;;;5049955;28;8845;-78
2023/07/09 03:53:23;;;;;;;;;5.00;5.00;;;;;;;;5049980;28;8976;-78
2023/07/09 03:55:56;;;;;;;;;6.50;6.50;;;;;;;;5049489;28;8854;-79
2023/07/09 03:58:24;;;;;;;;;6.50;6.50;;;;;;;;5050210;28;8864;-80
2023/07/09 04:00:51;;;;;;;;;7.25;6.50;;;;;;;;5049327;28;8880;-80
2023/07/09 04:03:19;;;;;;;;;8.00;8.00;;;;;;;;5050453;28;9651;-77
2023/07/09 04:05:46;;;;;;;;;6.50;6.50;;;;;;;;5049942;28;9636;-79
2023/07/09 04:08:13;;;;;;;;;10.00;9.00;;;;;;;;5049884;28;8869;-78
2023/07/09 04:10:41;;;;;;;;;7.00;7.00;;;;;;;;5049460;28;8861;-80
2023/07/09 04:13:09;;;;;;;;;8.50;8.50;;;;;;;;5049684;28;9636;-80
2023/07/09 04:15:37;;;;;;;;;5.75;5.75;;;;;;;;5049224;28;8869;-80
2023/07/09 04:18:04;;;;;;;;;5.50;5.50;;;;;;;;5049678;28;8976;-78
2023/07/09 04:20:31;;;;;;;;;7.75;7.75;;;;;;;;5049600;28;8884;-77
2023/07/09 04:22:58;;;;;;;;;4.25;2.75;;;;;;;;5049558;28;8976;-78
2023/07/09 04:25:26;;;;;;;;;9.75;8.50;;;;;;;;5049357;28;8853;-77
2023/07/09 04:27:54;;;;;;;;;7.50;7.50;;;;;;;;5049494;28;8865;-78
2023/07/09 04:30:23;;;;;;;;;7.00;5.00;;;;;;;;5048696;28;9656;-76
2023/07/09 04:32:50;;;;;;;;;7.50;7.50;;;;;;;;5049423;28;8976;-77
2023/07/09 04:35:17;;;;;;;;;5.75;5.75;;;;;;;;5049602;28;8955;-77
2023/07/09 04:37:44;;;;;;;;;6.50;6.50;;;;;;;;5049510;28;8869;-77
2023/07/09 04:40:13;;;;;;;;;8.25;8.25;;;;;;;;5049537;28;8871;-77
2023/07/09 04:42:43;;;;;;;;;6.50;6.50;;;;;;;;5049332;28;8879;-77
2023/07/09 04:45:12;;;;;;;;;6.75;6.75;;;;;;;;5049759;28;8867;-76
2023/07/09 04:47:41;;;;;;;;;6.50;6.50;;;;;;;;5050274;28;9008;-75
2023/07/09 04:50:11;;;;;;;;;7.00;7.00;;;;;;;;5052176;28;8881;-76
2023/07/09 04:52:38;;;;;;;;;6.75;6.75;;;;;;;;5052628;28;8845;-76
2023/07/09 04:55:07;;;;;;;;;7.50;7.50;;;;;;;;5053657;28;8899;-76
2023/07/09 04:57:36;;;;;;;;;6.20;6.20;;;;;;;;5053109;28;8919;-77
2023/07/09 05:00:05;;;;;;;;;7.00;7.00;;;;;;;;5051313;28;8919;-76
2023/07/09 05:02:33;;;;;;;;;9.40;7.00;;;;;;;;5050266;28;8900;-78
2023/07/09 05:05:05;;;;;;;;;7.80;7.80;;;;;;;;5049471;28;8850;-77
2023/07/09 05:07:33;;;;;;;;;8.20;5.00;;;;;;;;5048923;28;8853;-79
2023/07/09 05:10:00;;;;;;;;;8.00;6.00;;;;;;;;5048631;28;8849;-77
2023/07/09 05:12:29;;;;;;;;;6.20;6.20;;;;;;;;5049647;28;8873;-81
2023/07/09 05:14:57;;;;;;;;;5.80;5.80;;;;;;;;5055444;28;8919;-78
2023/07/09 05:17:24;;;;;;;;;7.20;5.80;;;;;;;;5055852;28;8857;-80
2023/07/09 05:19:52;;;;;;;;;5.60;5.60;;;;;;;;5055428;28;8865;-78
2023/07/09 05:22:20;;;;;;;;;4.20;4.20;;;;;;;;5055841;28;8971;-77
2023/07/09 05:24:48;;;;;;;;;4.80;4.80;;;;;;;;5055747;28;9012;-76
2023/07/09 05:27:15;;;;;;;;;8.00;4.80;;;;;;;;5056691;28;8950;-78
2023/07/09 05:29:42;;;;;;;;;4.80;4.80;;;;;;;;5056823;28;8846;-78
2023/07/09 05:32:09;;;;;;;;;5.80;5.80;;;;;;;;5058063;28;9555;-78
2023/07/09 05:34:36;;;;;;;;;6.00;6.00;;;;;;;;5058980;28;8857;-78
2023/07/09 05:37:04;;;;;;;;;5.20;4.80;;;;;;;;5057040;28;8864;-77
2023/07/09 05:39:33;;;;;;;;;7.60;5.60;;;;;;;;5055859;28;8879;-77
2023/07/09 05:42:00;;;;;;;;;4.80;4.80;;;;;;;;5055515;28;8857;-79
2023/07/09 05:44:27;;;;;;;;;4.60;4.60;;;;;;;;5055548;28;8887;-78
2023/07/09 05:46:54;;;;;;;;;4.80;4.80;;;;;;;;5054838;28;8865;-79
2023/07/09 05:49:21;;;;;;;;;8.60;7.00;;;;;;;;5058451;28;8964;-79
2023/07/09 05:51:49;;;;;;;;;5.60;5.60;;;;;;;;5056776;28;9000;-78
2023/07/09 05:54:16;;;;;;;;;4.80;4.80;;;;;;;;5055853;28;8879;-76
2023/07/09 05:56:45;;;;;;;;;5.40;5.40;;;;;;;;5055157;28;8845;-79
2023/07/09 05:59:12;;;;;;;;;5.60;5.60;;;;;;;;5054940;28;8854;-76
2023/07/09 06:01:39;;;;;;;;;6.80;5.40;;;;;;;;5054448;28;8829;-77
2023/07/09 06:04:07;;;;;;;;;4.80;4.80;;;;;;;;5054778;28;8865;-81
2023/07/09 06:06:34;;;;;;;;;5.80;5.80;;;;;;;;5056057;28;8861;-79
2023/07/09 06:09:01;;;;;;;;;5.20;5.20;;;;;;;;5055392;28;8919;-78
2023/07/09 06:11:28;;;;;;;;;6.60;5.40;;;;;;;;5055182;28;9226;-78
2023/07/09 06:13:58;;;;;;;;;6.60;6.60;;;;;;;;5054911;28;8846;-77
2023/07/09 06:16:25;;;;;;;;;5.80;5.80;;;;;;;;5055054;28;8865;-78
2023/07/09 06:18:53;;;;;;;;;4.80;4.80;;;;;;;;5055214;28;8984;-78
2023/07/09 06:21:20;;;;;;;;;6.80;6.80;;;;;;;;5055975;28;8857;-77
2023/07/09 06:23:47;;;;;;;;;6.80;5.80;;;;;;;;5055873;28;8865;-77
2023/07/09 06:26:15;;;;;;;;;6.20;5.00;;;;;;;;5052888;28;8853;-79
2023/07/09 06:28:42;;;;;;;;;7.00;7.00;;;;;;;;5053702;28;8862;-82
2023/07/09 06:31:13;;;;;;;;;7.40;7.40;;;;;;;;5055556;28;8829;-80
2023/07/09 06:33:41;;;;;;;;;8.40;6.60;;;;;;;;5055255;28;8915;-79
2023/07/09 06:36:09;;;;;;;;;7.60;6.40;;;;;;;;5052561;28;8879;-81
2023/07/09 06:38:37;;;;;;;;;7.00;6.20;;;;;;;;5052104;28;8857;-78
2023/07/09 06:41:04;;;;;;;;;5.60;4.20;;;;;;;;5051645;28;8862;-78
2023/07/09 06:43:32;;;;;;;;;6.80;6.80;;;;;;;;5051523;28;8883;-79
2023/07/09 06:46:01;;;;;;;;;7.20;7.20;;;;;;;;5050885;28;8889;-80
2023/07/09 06:48:30;;;;;;;;;4.40;4.40;;;;;;;;5052423;28;8961;-80
2023/07/09 06:50:59;;;;;;;;;5.20;5.20;;;;;;;;5051400;28;8849;-80
2023/07/09 06:53:27;;;;;;;;;6.00;6.00;;;;;;;;5053643;28;8980;-79
2023/07/09 06:55:55;;;;;;;;;6.60;6.60;;;;;;;;5055142;28;9623;-79
2023/07/09 06:58:24;;;;;;;;;5.20;5.20;;;;;;;;5051798;28;8845;-80
2023/07/09 07:00:51;;;;;;;;;8.20;6.80;;;;;;;;5050344;28;8782;-81
2023/07/09 07:03:19;;;;;;;;;5.20;5.20;;;;;;;;5050205;28;8868;-81
2023/07/09 07:05:49;;;;;;;;;5.00;5.00;;;;;;;;5051049;28;8891;-81
2023/07/09 07:08:18;;;;;;;;;4.80;4.80;;;;;;;;5051289;28;8857;-81
2023/07/09 07:10:46;;;;;;;;;6.60;5.80;;;;;;;;5050873;28;8849;-82
2023/07/09 07:13:14;;;;;;;;;5.20;5.20;;;;;;;;5051519;28;9631;-81
2023/07/09 07:15:45;;;;;;;;;3.80;3.80;;;;;;;;5051314;28;8873;-82
2023/07/09 07:18:12;;;;;;;;;5.00;5.00;;;;;;;;5050836;28;8891;-81
2023/07/09 07:20:40;;;;;;;;;4.00;4.00;;;;;;;;5051022;28;8867;-80
2023/07/09 07:23:09;;;;;;;;;6.20;6.20;;;;;;;;5050610;28;8845;-81
2023/07/09 07:25:36;;;;;;;;;4.00;4.00;;;;;;;;5050472;28;8865;-79
2023/07/09 07:28:04;;;;;;;;;5.00;4.00;;;;;;;;5051138;28;8869;-78
2023/07/09 07:30:31;;;;;;;;;5.60;5.60;;;;;;;;5050066;28;8791;-77
2023/07/09 07:32:58;;;;;;;;;4.60;3.60;;;;;;;;5050684;28;8849;-73
2023/07/09 07:35:25;;;;;;;;;3.20;3.20;;;;;;;;5049809;28;8864;-76
2023/07/09 07:37:52;;;;;;;;;4.20;4.20;;;;;;;;5049934;28;8861;-79
2023/07/09 07:40:21;;;;;;;;;4.20;4.20;;;;;;;;5050657;28;8871;-80
2023/07/09 07:42:48;;;;;;;;;3.20;3.20;;;;;;;;5050657;28;8845;-73
2023/07/09 07:45:16;;;;;;;;;5.40;5.20;;;;;;;;5050027;28;8992;-75
2023/07/09 07:47:45;;;;;;;;;3.80;3.80;;;;;;;;5049655;28;9782;-74
2023/07/09 07:50:13;;;;;;;;;4.20;4.20;;;;;;;;5050314;28;8946;-75
2023/07/09 07:52:40;;;;;;;;;3.80;3.80;;;;;;;;5049758;28;8934;-76
2023/07/09 07:55:08;;;;;;;;;7.00;4.00;;;;;;;;5050229;28;8943;-77
2023/07/09 07:57:37;;;;;;;;;6.00;4.20;;;;;;;;5049663;28;8885;-74
2023/07/09 08:00:05;;;;;;;;;5.20;4.00;;;;;;;;5050726;28;8853;-76
2023/07/09 08:02:32;;;;;;;;;3.60;3.60;;;;;;;;5051756;28;8807;-74
2023/07/09 08:04:59;;;;;;;;;5.20;4.20;;;;;;;;5034481;28;8888;-78
2023/07/09 08:07:26;;;;;;;;;2.00;1.60;;;;;;;;5031656;28;8889;-77
2023/07/09 08:09:54;;;;;;;;;6.20;4.80;;;;;;;;5030303;28;8865;-78
2023/07/09 08:12:21;;;;;;;;;4.00;4.00;;;;;;;;5030261;28;9535;-78
2023/07/09 08:14:49;;;;;;;;;4.00;4.00;;;;;;;;5029760;28;8861;-76
2023/07/09 08:17:17;;;;;;;;;7.40;6.00;;;;;;;;5029864;28;9670;-79
2023/07/09 08:19:49;;;;;;;;;6.00;6.00;;;;;;;;5029813;28;8908;-77
2023/07/09 08:22:20;;;;;;;;;3.80;3.80;;;;;;;;5029989;28;8911;-78
2023/07/09 08:24:47;;;;;;;;;1.20;1.00;;;;;;;;5029676;28;8884;-81
2023/07/09 08:27:15;;;;;;;;;5.80;4.20;;;;;;;;5029561;28;9668;-78
2023/07/09 08:29:42;;;;;;;;;5.40;5.40;;;;;;;;5029834;28;8955;-77
2023/07/09 08:32:12;;;;;;;;;3.80;3.80;;;;;;;;5030067;28;8785;-80
2023/07/09 08:34:40;;;;;;;;;6.40;5.00;;;;;;;;5030230;28;8976;-77
2023/07/09 08:37:08;;;;;;;;;6.20;6.20;;;;;;;;5031248;28;8883;-77
2023/07/09 08:39:36;;;;;;;;;5.20;5.20;;;;;;;;5030597;28;8880;-79
2023/07/09 08:42:07;;;;;;;;;4.60;4.60;;;;;;;;5030826;28;9657;-80
2023/07/09 08:44:54;;;;;;;;;4.80;4.80;;;;;;;;5030385;28;8962;-79
2023/07/09 08:47:30;;;;;;;;;4.60;4.00;;;;;;;;5019289;28;9624;-79
2023/07/09 08:50:01;;;;;;;;;8.00;7.40;;;;;;;;5029482;28;8853;-80
2023/07/09 08:52:32;;;;;;;;;5.40;5.40;;;;;;;;5029429;28;9608;-80
2023/07/09 08:55:08;;;;;;;;;3.20;3.20;;;;;;;;5029266;28;9655;-78
2023/07/09 08:57:37;;;;;;;;;5.80;5.40;;;;;;;;5029463;28;8865;-81
2023/07/09 09:00:14;;;;;;;;;7.00;6.80;;;;;;;;5030146;28;8877;-77
2023/07/09 09:02:47;;;;;;;;;7.20;5.80;;;;;;;;5050212;28;8917;-77
2023/07/09 09:05:19;;;;;;;;;5.80;5.80;;;;;;;;5030024;28;8848;-79
2023/07/09 09:07:48;;;;;;;;;9.20;8.00;;;;;;;;5029538;28;8876;-81
2023/07/09 09:10:19;;;;;;;;;7.40;7.40;;;;;;;;5029815;28;8934;-85
2023/07/09 09:12:58;;;;;;;;;6.20;6.20;;;;;;;;5032383;28;8856;-86
2023/07/09 09:15:26;;;;;;;;;9.00;8.00;;;;;;;;5031550;28;8845;-82
2023/07/09 09:18:00;;;;;;;;;8.80;7.60;;;;;;;;5031317;28;8979;-83
2023/07/09 09:20:29;;;;;;;;;6.80;6.80;;;;;;;;5030507;28;8857;-76
2023/07/09 09:23:02;;;;;;;;;5.00;5.00;;;;;;;;5029888;28;8860;-75
2023/07/09 09:25:30;;;;;;;;;6.40;6.40;;;;;;;;5029698;28;8869;-80
2023/07/09 09:27:57;;;;;;;;;4.60;4.60;;;;;;;;5029488;28;8857;-77
2023/07/09 09:30:26;;;;;;;;;7.20;5.80;;;;;;;;5026531;28;8775;-85
2023/07/09 09:32:56;;;;;;;;;4.40;4.40;;;;;;;;5010471;28;8913;-84
2023/07/09 09:35:28;;;;;;;;;3.80;3.80;;;;;;;;5011054;28;8879;-78
2023/07/09 09:37:57;;;;;;;;;4.40;4.40;;;;;;;;5012836;28;8858;-76
2023/07/09 09:40:25;;;;;;;;;4.20;4.20;;;;;;;;5012807;28;8974;-78
2023/07/09 09:42:54;;;;;;;;;6.00;4.60;;;;;;;;5009768;28;8894;-79
2023/07/09 09:45:25;;;;;;;;;4.20;4.20;;;;;;;;5009450;28;8854;-78
2023/07/09 09:48:00;;;;;;;;;5.00;3.80;;;;;;;;5025572;28;8892;-81
2023/07/09 09:50:31;;;;;;;;;3.20;3.20;;;;;;;;5029038;28;8935;-77
2023/07/09 09:53:01;;;;;;;;;3.40;2.00;;;;;;;;5028828;28;8844;-82
2023/07/09 09:55:30;;;;;;;;;3.80;3.00;;;;;;;;5029000;28;8852;-76
2023/07/09 09:57:58;;;;;;;;;4.40;3.80;;;;;;;;5028796;28;8936;-76
2023/07/09 10:00:27;;;;;;;;;3.00;3.00;;;;;;;;5031112;28;8868;-81
2023/07/09 10:03:00;;;;;;;;;2.80;2.80;;;;;;;;5032294;28;9732;-75
2023/07/09 10:05:32;;;;;;;;;0.80;0.80;;;;;;;;5032993;28;8855;-82
2023/07/09 10:08:04;;;;;;;;;172.50;157.75;;;;;;;;5032419;28;8859;-73
2023/07/09 10:10:34;;;;;;;;;35.60;31.60;;;;;;;;5032049;28;11469;-74
2023/07/09 10:13:07;;;;;;;;;102.67;95.67;;;;;;;;5032103;28;8886;-76
2023/07/09 10:15:42;;;;;;;;;3.60;3.40;;;;;;;;5031802;28;9263;-76
2023/07/09 10:18:23;;;;;;;;;55.25;45.00;;;;;;;;5031984;28;8975;-83
2023/07/09 10:20:56;;;;;;;;;6.00;6.00;;;;;;;;5032260;28;8979;-82
2023/07/09 10:23:29;;;;;;;;;21.00;19.20;;;;;;;;5032302;28;8856;-77
2023/07/09 10:26:02;;;;;;;;;6.40;6.40;;;;;;;;5032243;28;9005;-83
2023/07/09 10:28:57;;;;;;;;;22.60;19.40;;;;;;;;5034217;28;8966;-81
2023/07/09 10:31:31;;;;;;;;;3.00;3.00;;;;;;;;5034481;28;9599;-87
2023/07/09 10:34:06;;;;;;;;;6.00;5.60;;;;;;;;5034551;28;9015;-79
2023/07/09 10:36:47;;;;;;;;;6.80;6.80;;;;;;;;5034845;28;8863;-84
2023/07/09 10:39:18;;;;;;;;;3.00;3.00;;;;;;;;5033972;28;8858;-80
2023/07/09 10:41:48;;;;;;;;;398.25;382.25;;;;;;;;5032675;28;8855;-89
2023/07/09 10:44:19;;;;;;;;;4.60;4.60;;;;;;;;5032736;28;11733;-86
2023/07/09 10:46:50;;;;;;;;;24.40;23.80;;;;;;;;5039227;28;8865;-82
2023/07/09 10:49:19;;;;;;;;;1.00;1.00;;;;;;;;5051927;28;8842;-90
2023/07/09 10:51:51;;;;;;;;;61.40;50.40;;;;;;;;5051836;28;8969;-86
2023/07/09 10:54:25;;;;;;;;;1.80;1.80;;;;;;;;5052139;28;8957;-84
2023/07/09 10:56:58;;;;;;;;;3.00;3.00;;;;;;;;5051914;28;8874;-80
2023/07/09 10:59:31;;;;;;;;;39.00;31.80;;;;;;;;5052808;28;8839;-83
2023/07/09 11:02:10;;;;;;;;;106.75;102.50;;;;;;;;5052172;28;8791;-84
2023/07/09 11:04:42;;;;;;;;;0.60;0.60;;;;;;;;5052564;28;10627;-85
2023/07/09 11:07:12;;;;;;;;;44.40;36.80;;;;;;;;5054171;28;8865;-84
2023/07/09 11:09:42;;;;;;;;;6.00;6.00;;;;;;;;5056143;28;8862;-88
2023/07/09 11:12:13;;;;;;;;;19.80;19.20;;;;;;;;5057702;28;8835;-87
2023/07/09 11:14:44;;;;;;;;;4.80;4.80;;;;;;;;5057734;28;8859;-86
2023/07/09 11:17:18;;;;;;;;;4.00;3.00;;;;;;;;5056460;28;8842;-82
2023/07/09 11:19:49;;;;;;;;;4.00;4.00;;;;;;;;5053178;28;8866;-75
2023/07/09 11:22:18;;;;;;;;;5.80;4.00;;;;;;;;5052316;28;8862;-83
2023/07/09 11:24:50;;;;;;;;;4.00;4.00;;;;;;;;5050813;28;8854;-80
2023/07/09 11:27:23;;;;;;;;;4.00;4.00;;;;;;;;5051059;28;8932;-77
2023/07/09 11:29:58;;;;;;;;;5.00;5.00;;;;;;;;5050801;28;8854;-77
2023/07/09 11:32:29;;;;;;;;;6.20;4.40;;;;;;;;5050811;28;8936;-86
2023/07/09 11:35:08;;;;;;;;;4.00;4.00;;;;;;;;5051095;28;8881;-74
2023/07/09 11:37:46;;;;;;;;;4.00;4.00;;;;;;;;5050310;28;8854;-90
2023/07/09 11:40:14;;;;;;;;;3.40;3.40;;;;;;;;5050965;28;8970;-81
2023/07/09 11:42:53;;;;;;;;;1.60;1.60;;;;;;;;5050733;28;8876;-80
2023/07/09 11:45:25;;;;;;;;;2.00;2.00;;;;;;;;5051239;28;9875;-88
2023/07/09 11:48:03;;;;;;;;;2.00;2.00;;;;;;;;5052552;28;8873;-84
2023/07/09 11:50:42;;;;;;;;;2.00;2.00;;;;;;;;5055055;28;8841;-77
2023/07/09 11:53:27;;;;;;;;;2.40;2.40;;;;;;;;5052761;28;8841;-78
2023/07/09 11:55:54;;;;;;;;;2.00;2.00;;;;;;;;5051112;28;8879;-78
2023/07/09 11:58:21;;;;;;;;;2.00;2.00;;;;;;;;5051364;28;9361;-79
2023/07/09 12:00:50;;;;;;;;;2.60;2.60;;;;;;;;5049858;28;8782;-79
2023/07/09 12:03:20;;;;;;;;;2.40;2.00;;;;;;;;5050912;28;8837;-82
2023/07/09 12:05:52;;;;;;;;;4.00;3.20;;;;;;;;5050470;28;8865;-78
2023/07/09 12:08:25;;;;;;;;;2.80;2.80;;;;;;;;5050656;28;8865;-91
2023/07/09 12:10:52;;;;;;;;;3.60;2.00;;;;;;;;5050479;28;8868;-84
2023/07/09 12:13:19;;;;;;;;;2.00;2.00;;;;;;;;5051075;28;8849;-85
2023/07/09 12:15:46;;;;;;;;;4.80;3.60;;;;;;;;5050522;28;8883;-86
2023/07/09 12:18:15;;;;;;;;;2.20;2.00;;;;;;;;5050404;28;8845;-87
2023/07/09 12:20:46;;;;;;;;;1.80;1.60;;;;;;;;5050440;28;9683;-82
2023/07/09 12:23:22;;;;;;;;;3.00;3.00;;;;;;;;5050506;28;8841;-82
2023/07/09 12:25:50;;;;;;;;;3.00;3.00;;;;;;;;5050387;28;8991;-87
2023/07/09 12:28:18;;;;;;;;;3.20;3.20;;;;;;;;5052236;28;9000;-91
2023/07/09 12:30:50;;;;;;;;;3.20;1.80;;;;;;;;5054646;28;8932;-83
2023/07/09 12:33:18;;;;;;;;;1.60;1.60;;;;;;;;5052781;28;8845;-89
2023/07/09 12:35:46;;;;;;;;;2.60;2.60;;;;;;;;5053559;28;8881;-87
2023/07/09 12:38:20;;;;;;;;;0.00;0.00;;;;;;;;5051935;28;8883;-87
2023/07/09 12:40:48;;;;;;;;;2.40;1.80;;;;;;;;5051498;28;8871;-86
2023/07/09 12:43:20;;;;;;;;;3.00;3.00;;;;;;;;5051786;28;8884;-88
2023/07/09 12:45:47;;;;;;;;;2.80;2.80;;;;;;;;5051529;28;8861;-86
2023/07/09 12:48:14;;;;;;;;;2.00;2.00;;;;;;;;5050497;28;8973;-87
2023/07/09 12:50:51;;;;;;;;;1.00;1.00;;;;;;;;5049700;28;8854;-85
2023/07/09 12:53:21;;;;;;;;;2.20;2.20;;;;;;;;5049493;28;8854;-86
2023/07/09 12:55:50;;;;;;;;;4.00;2.40;;;;;;;;5049583;28;8873;-80
2023/07/09 12:58:21;;;;;;;;;3.00;3.00;;;;;;;;5049491;28;8851;-79
2023/07/09 13:00:51;;;;;;;;;2.00;2.00;;;;;;;;5048449;28;8871;-77
2023/07/09 13:03:21;;;;;;;;;3.00;3.00;;;;;;;;5045316;28;8847;-76
2023/07/09 13:06:00;;;;;;;;;2.20;2.20;;;;;;;;5029289;28;8853;-83
2023/07/09 13:08:30;;;;;;;;;4.20;3.00;;;;;;;;5030501;28;8860;-83
2023/07/09 13:10:57;;;;;;;;;3.60;2.80;;;;;;;;5032781;28;8914;-81
2023/07/09 13:13:26;;;;;;;;;2.40;2.40;;;;;;;;5031430;28;8871;-86
2023/07/09 13:15:56;;;;;;;;;4.00;4.00;;;;;;;;5030487;28;8857;-82
2023/07/09 13:18:25;;;;;;;;;2.00;2.00;;;;;;;;5029925;28;8978;-82
2023/07/09 13:20:54;;;;;;;;;2.40;2.40;;;;;;;;5029240;28;8853;-78
2023/07/09 13:23:24;;;;;;;;;4.00;4.00;;;;;;;;5029405;28;8928;-76
2023/07/09 13:25:55;;;;;;;;;3.60;3.60;;;;;;;;5028757;28;8841;-77
2023/07/09 13:28:26;;;;;;;;;3.00;3.00;;;;;;;;5029322;28;8879;-75
2023/07/09 13:30:54;;;;;;;;;3.00;3.00;;;;;;;;5022060;28;8803;-85
2023/07/09 13:33:22;;;;;;;;;3.40;3.40;;;;;;;;5008620;28;8859;-83
2023/07/09 13:35:52;;;;;;;;;2.80;2.80;;;;;;;;5013121;28;8870;-85
2023/07/09 13:38:21;;;;;;;;;2.40;2.40;;;;;;;;5013668;28;8874;-84
2023/07/09 13:40:53;;;;;;;;;3.20;3.20;;;;;;;;5013666;28;8859;-85
2023/07/09 13:43:24;;;;;;;;;2.80;2.80;;;;;;;;5015129;28;8862;-82
2023/07/09 13:45:51;;;;;;;;;3.60;3.60;;;;;;;;5013702;28;8881;-79
2023/07/09 13:48:20;;;;;;;;;3.80;3.80;;;;;;;;5033133;28;8856;-90
2023/07/09 13:50:49;;;;;;;;;3.60;3.00;;;;;;;;5033708;28;8887;-81
2023/07/09 13:53:19;;;;;;;;;2.40;2.40;;;;;;;;5032689;28;8893;-77
2023/07/09 13:55:46;;;;;;;;;3.00;3.00;;;;;;;;5032462;28;8886;-76
2023/07/09 13:58:17;;;;;;;;;2.40;2.00;;;;;;;;5032917;28;8865;-78
2023/07/09 14:00:46;;;;;;;;;3.40;3.40;;;;;;;;5031831;28;8776;-82
2023/07/09 14:03:15;;;;;;;;;3.00;3.00;;;;;;;;5029752;28;8893;-79
2023/07/09 14:05:43;;;;;;;;;2.40;2.40;;;;;;;;5012987;28;8871;-83
2023/07/09 14:08:11;;;;;;;;;4.40;4.40;;;;;;;;5013834;28;8882;-83
2023/07/09 14:10:38;;;;;;;;;3.40;3.40;;;;;;;;5014057;28;8887;-87
2023/07/09 14:13:05;;;;;;;;;3.80;3.80;;;;;;;;5015455;28;8869;-90
2023/07/09 14:15:34;;;;;;;;;1.80;1.80;;;;;;;;5016602;28;8993;-84
2023/07/09 14:18:01;;;;;;;;;4.40;4.40;;;;;;;;5018054;28;8862;-91
2023/07/09 14:20:28;;;;;;;;;3.80;3.00;;;;;;;;5017225;28;9000;-89
2023/07/09 14:22:56;;;;;;;;;3.00;3.00;;;;;;;;5015600;28;8847;-89
2023/07/09 14:25:25;;;;;;;;;3.00;3.00;;;;;;;;5014120;28;8850;-85
2023/07/09 14:27:54;;;;;;;;;1.40;1.40;;;;;;;;5013308;28;8900;-85
2023/07/09 14:30:23;;;;;;;;;2.80;2.80;;;;;;;;5012617;28;8855;-85
2023/07/09 14:32:52;;;;;;;;;1.20;1.20;;;;;;;;5013944;28;9671;-88
2023/07/09 14:35:22;;;;;;;;;4.00;2.00;;;;;;;;5014329;28;8973;-84
2023/07/09 14:37:53;;;;;;;;;3.00;3.00;;;;;;;;5012806;28;8866;-87
2023/07/09 14:40:21;;;;;;;;;1.20;1.20;;;;;;;;5012512;28;8940;-82
2023/07/09 14:42:49;;;;;;;;;3.60;3.60;;;;;;;;5012499;28;8882;-84
2023/07/09 14:45:23;;;;;;;;;2.40;2.40;;;;;;;;5012213;28;8843;-84
2023/07/09 14:47:53;;;;;;;;;2.00;2.00;;;;;;;;5044251;28;8838;-76
2023/07/09 14:50:21;;;;;;;;;1.80;1.80;;;;;;;;5051630;28;8858;-83
2023/07/09 14:52:48;;;;;;;;;2.40;2.40;;;;;;;;5051759;28;8883;-77
2023/07/09 14:55:17;;;;;;;;;2.60;2.60;;;;;;;;5051431;28;8851;-74
2023/07/09 14:57:44;;;;;;;;;2.00;2.00;;;;;;;;5051687;28;8838;-78
2023/07/09 15:00:17;;;;;;;;;2.00;2.00;;;;;;;;5051347;28;8850;-83
2023/07/09 15:02:45;;;;;;;;;1.40;1.40;;;;;;;;5051442;28;8865;-76
2023/07/09 15:05:19;;;;;;;;;0.00;0.00;;;;;;;;5051573;28;8866;-80
2023/07/09 15:07:47;;;;;;;;;2.00;2.00;;;;;;;;5051539;28;8847;-80